createdAt,value
2016-11-20T00:00:12.805Z,0
2016-11-20T00:01:12.810Z,0
2016-11-20T00:02:12.833Z,0
2016-11-20T00:03:12.863Z,0
2016-11-20T00:04:12.853Z,0
2016-11-20T00:05:12.870Z,0
2016-11-20T00:06:12.895Z,0
2016-11-20T00:07:12.899Z,0
2016-11-20T00:08:12.913Z,0
2016-11-20T00:09:12.931Z,0
2016-11-20T00:10:12.938Z,0
2016-11-20T00:11:12.951Z,0
2016-11-20T00:12:12.967Z,0
2016-11-20T00:13:12.983Z,0
2016-11-20T00:14:12.999Z,0
2016-11-20T00:15:13.013Z,0
2016-11-20T00:16:13.027Z,0
2016-11-20T00:17:13.042Z,0
2016-11-20T00:18:13.058Z,0
2016-11-20T00:19:13.076Z,0
2016-11-20T00:20:13.085Z,0
2016-11-20T00:21:13.092Z,0
2016-11-20T00:22:13.099Z,0
2016-11-20T00:23:13.125Z,0
2016-11-20T00:24:13.130Z,0
2016-11-20T00:25:13.137Z,0
2016-11-20T00:26:13.163Z,0
2016-11-20T00:27:13.171Z,0
2016-11-20T00:28:13.181Z,0
2016-11-20T00:29:13.204Z,0
2016-11-20T00:30:13.204Z,0
2016-11-20T00:31:13.226Z,0
2016-11-20T00:32:13.240Z,0
2016-11-20T00:33:13.261Z,0
2016-11-20T00:34:13.267Z,0
2016-11-20T00:35:13.284Z,0
2016-11-20T00:36:13.293Z,0
2016-11-20T00:37:13.309Z,0
2016-11-20T00:38:13.328Z,0
2016-11-20T00:39:13.336Z,0
2016-11-20T00:40:13.352Z,0
2016-11-20T00:41:13.370Z,0
2016-11-20T00:42:13.378Z,0
2016-11-20T00:43:13.391Z,0
2016-11-20T00:44:13.404Z,0
2016-11-20T00:45:13.416Z,0
2016-11-20T00:46:13.426Z,0
2016-11-20T00:47:13.433Z,0
2016-11-20T00:48:13.455Z,0
2016-11-20T00:49:13.471Z,0
2016-11-20T00:50:13.474Z,0
2016-11-20T00:51:13.490Z,0
2016-11-20T00:52:13.507Z,0
2016-11-20T00:53:13.516Z,0
2016-11-20T00:54:13.529Z,0
2016-11-20T00:55:13.541Z,0
2016-11-20T00:56:13.571Z,0
2016-11-20T00:57:13.578Z,0
2016-11-20T00:58:13.593Z,0
2016-11-20T00:59:13.606Z,0
2016-11-20T01:00:13.611Z,0
2016-11-20T01:01:13.634Z,0
2016-11-20T01:02:13.643Z,0
2016-11-20T01:03:13.658Z,0
2016-11-20T01:04:13.671Z,0
2016-11-20T01:05:13.679Z,0
2016-11-20T01:06:13.684Z,0
2016-11-20T01:07:13.707Z,0
2016-11-20T01:08:13.757Z,0
2016-11-20T01:09:13.723Z,0
2016-11-20T01:10:13.761Z,0
2016-11-20T01:11:13.751Z,0
2016-11-20T01:12:13.785Z,0
2016-11-20T01:13:13.794Z,0
2016-11-20T01:14:13.806Z,0
2016-11-20T01:15:13.815Z,0
2016-11-20T01:16:13.823Z,0
2016-11-20T01:17:13.842Z,0
2016-11-20T01:18:13.858Z,0
2016-11-20T01:19:13.869Z,0
2016-11-20T01:20:13.877Z,0
2016-11-20T01:21:13.904Z,0
2016-11-20T01:22:13.912Z,0
2016-11-20T01:23:13.932Z,0
2016-11-20T01:24:13.940Z,0
2016-11-20T01:25:13.947Z,0
2016-11-20T01:26:13.972Z,0
2016-11-20T01:27:13.979Z,0
2016-11-20T01:28:13.986Z,0
2016-11-20T01:29:14.006Z,0
2016-11-20T01:30:14.015Z,0
2016-11-20T01:31:14.032Z,0
2016-11-20T01:32:14.046Z,0
2016-11-20T01:33:14.057Z,0
2016-11-20T01:34:14.075Z,0
2016-11-20T01:35:14.086Z,0
2016-11-20T01:36:14.094Z,0
2016-11-20T01:37:14.118Z,0
2016-11-20T01:38:14.120Z,0
2016-11-20T01:39:14.140Z,0
2016-11-20T01:40:14.889Z,0
2016-11-20T01:41:14.166Z,0
2016-11-20T01:42:14.184Z,0
2016-11-20T01:43:14.226Z,0
2016-11-20T01:44:14.204Z,0
2016-11-20T01:45:14.226Z,0
2016-11-20T01:46:14.231Z,0
2016-11-20T01:47:14.251Z,0
2016-11-20T01:48:14.254Z,0
2016-11-20T01:49:14.269Z,0
2016-11-20T01:50:14.289Z,0
2016-11-20T01:51:14.305Z,0
2016-11-20T01:52:14.318Z,0
2016-11-20T01:53:14.337Z,0
2016-11-20T01:54:14.344Z,0
2016-11-20T01:55:14.346Z,0
2016-11-20T01:56:14.373Z,0
2016-11-20T01:57:14.389Z,0
2016-11-20T01:58:14.403Z,0
2016-11-20T01:59:14.416Z,0
2016-11-20T02:00:14.456Z,0
2016-11-20T02:01:14.473Z,0
2016-11-20T02:02:14.456Z,0
2016-11-20T02:03:14.463Z,0
2016-11-20T02:04:14.493Z,0
2016-11-20T02:05:14.488Z,0
2016-11-20T02:06:14.516Z,0
2016-11-20T02:07:14.528Z,0
2016-11-20T02:08:14.538Z,0
2016-11-20T02:09:14.554Z,0
2016-11-20T02:10:14.566Z,0
2016-11-20T02:11:14.565Z,0
2016-11-20T02:12:14.590Z,0
2016-11-20T02:13:14.602Z,0
2016-11-20T02:14:14.619Z,0
2016-11-20T02:15:14.635Z,0
2016-11-20T02:16:14.633Z,0
2016-11-20T02:17:14.647Z,0
2016-11-20T02:18:14.665Z,0
2016-11-20T02:19:14.681Z,0
2016-11-20T02:20:14.701Z,0
2016-11-20T02:21:14.703Z,0
2016-11-20T02:22:14.709Z,0
2016-11-20T02:23:14.732Z,0
2016-11-20T02:24:14.763Z,0
2016-11-20T02:25:14.772Z,0
2016-11-20T02:26:14.776Z,0
2016-11-20T02:27:14.794Z,0
2016-11-20T02:28:14.805Z,0
2016-11-20T02:29:14.823Z,0
2016-11-20T02:30:14.839Z,0
2016-11-20T02:31:14.849Z,0
2016-11-20T02:32:14.862Z,0
2016-11-20T02:33:14.876Z,0
2016-11-20T02:34:14.900Z,0
2016-11-20T02:35:14.913Z,0
2016-11-20T02:36:14.916Z,0
2016-11-20T02:37:14.927Z,0
2016-11-20T02:38:14.944Z,0
2016-11-20T02:39:14.964Z,0
2016-11-20T02:40:14.967Z,0
2016-11-20T02:41:14.992Z,0
2016-11-20T02:42:15.007Z,0
2016-11-20T02:43:15.014Z,0
2016-11-20T02:44:15.030Z,0
2016-11-20T02:45:15.047Z,0
2016-11-20T02:46:15.045Z,0
2016-11-20T02:47:15.073Z,0
2016-11-20T02:48:15.075Z,0
2016-11-20T02:49:15.094Z,0
2016-11-20T02:50:15.093Z,0
2016-11-20T02:51:15.114Z,0
2016-11-20T02:52:15.141Z,0
2016-11-20T02:53:15.143Z,0
2016-11-20T02:54:15.161Z,0
2016-11-20T02:55:15.173Z,0
2016-11-20T02:56:15.190Z,0
2016-11-20T02:57:15.200Z,0
2016-11-20T02:58:15.205Z,0
2016-11-20T02:59:15.227Z,0
2016-11-20T03:00:15.242Z,0
2016-11-20T03:01:15.275Z,0
2016-11-20T03:02:15.264Z,0
2016-11-20T03:03:15.286Z,0
2016-11-20T03:04:15.293Z,0
2016-11-20T03:05:15.338Z,0
2016-11-20T03:06:15.316Z,0
2016-11-20T03:07:15.333Z,0
2016-11-20T03:08:15.358Z,0
2016-11-20T03:09:15.363Z,0
2016-11-20T03:10:15.384Z,0
2016-11-20T03:11:15.401Z,0
2016-11-20T03:12:15.420Z,0
2016-11-20T03:13:15.427Z,0
2016-11-20T03:14:15.428Z,0
2016-11-20T03:15:15.443Z,0
2016-11-20T03:16:15.480Z,0
2016-11-20T03:17:15.485Z,0
2016-11-20T03:18:15.498Z,0
2016-11-20T03:19:15.497Z,0
2016-11-20T03:20:15.519Z,0
2016-11-20T03:21:15.536Z,0
2016-11-20T03:22:15.563Z,0
2016-11-20T03:23:15.558Z,0
2016-11-20T03:24:15.581Z,0
2016-11-20T03:25:15.582Z,0
2016-11-20T03:26:15.608Z,0
2016-11-20T03:27:15.628Z,0
2016-11-20T03:28:15.627Z,0
2016-11-20T03:29:15.643Z,0
2016-11-20T03:30:15.657Z,0
2016-11-20T03:31:15.677Z,0
2016-11-20T03:32:15.678Z,0
2016-11-20T03:33:15.701Z,0
2016-11-20T03:34:15.728Z,0
2016-11-20T03:35:15.738Z,0
2016-11-20T03:36:15.737Z,0
2016-11-20T03:37:15.752Z,0
2016-11-20T03:38:15.757Z,0
2016-11-20T03:39:15.776Z,0
2016-11-20T03:40:15.793Z,0
2016-11-20T03:41:15.840Z,0
2016-11-20T03:42:15.821Z,0
2016-11-20T03:43:15.839Z,0
2016-11-20T03:44:15.851Z,0
2016-11-20T03:45:15.871Z,0
2016-11-20T03:46:15.874Z,0
2016-11-20T03:47:15.980Z,0
2016-11-20T03:48:15.904Z,0
2016-11-20T03:49:15.922Z,0
2016-11-20T03:50:15.926Z,0
2016-11-20T03:51:15.932Z,0
2016-11-20T03:52:15.948Z,0
2016-11-20T03:53:15.979Z,0
2016-11-20T03:54:15.993Z,0
2016-11-20T03:55:16.002Z,0
2016-11-20T03:56:16.027Z,0
2016-11-20T03:57:16.015Z,0
2016-11-20T03:58:16.048Z,0
2016-11-20T03:59:16.069Z,0
2016-11-20T04:01:16.075Z,0
2016-11-20T04:02:16.090Z,0
2016-11-20T04:03:16.110Z,0
2016-11-20T04:04:16.118Z,0
2016-11-20T04:05:16.128Z,0
2016-11-20T04:06:16.183Z,0
2016-11-20T04:07:16.159Z,0
2016-11-20T04:08:16.180Z,0
2016-11-20T04:09:16.180Z,0
2016-11-20T04:10:16.198Z,0
2016-11-20T04:11:16.214Z,0
2016-11-20T04:12:16.233Z,0
2016-11-20T04:13:16.244Z,0
2016-11-20T04:14:16.258Z,0
2016-11-20T04:15:16.266Z,0
2016-11-20T04:16:16.283Z,0
2016-11-20T04:17:16.305Z,0
2016-11-20T04:18:16.320Z,0
2016-11-20T04:19:16.327Z,0
2016-11-20T04:20:16.333Z,0
2016-11-20T04:21:16.344Z,0
2016-11-20T04:22:16.368Z,0
2016-11-20T04:23:16.382Z,0
2016-11-20T04:24:16.401Z,0
2016-11-20T04:25:16.407Z,0
2016-11-20T04:26:16.422Z,0
2016-11-20T04:27:16.429Z,0
2016-11-20T04:28:16.449Z,0
2016-11-20T04:29:16.460Z,0
2016-11-20T04:30:16.466Z,0
2016-11-20T04:31:16.492Z,0
2016-11-20T04:32:16.503Z,0
2016-11-20T04:33:16.506Z,0
2016-11-20T04:34:16.537Z,0
2016-11-20T04:35:16.549Z,0
2016-11-20T04:36:16.565Z,0
2016-11-20T04:37:16.573Z,0
2016-11-20T04:38:16.576Z,0
2016-11-20T04:39:16.602Z,0
2016-11-20T04:40:16.606Z,0
2016-11-20T04:41:16.613Z,0
2016-11-20T04:42:16.725Z,0
2016-11-20T04:43:16.651Z,0
2016-11-20T04:44:16.657Z,0
2016-11-20T04:45:16.677Z,0
2016-11-20T04:46:16.688Z,0
2016-11-20T04:47:16.704Z,0
2016-11-20T04:48:16.719Z,0
2016-11-20T04:49:16.739Z,0
2016-11-20T04:50:16.753Z,0
2016-11-20T04:51:16.761Z,0
2016-11-20T04:52:16.776Z,0
2016-11-20T04:53:16.786Z,0
2016-11-20T04:54:16.800Z,0
2016-11-20T04:55:16.813Z,0
2016-11-20T04:56:16.828Z,0
2016-11-20T04:57:16.843Z,0
2016-11-20T04:58:16.846Z,0
2016-11-20T04:59:16.899Z,0
2016-11-20T05:00:16.888Z,0
2016-11-20T05:01:16.893Z,0
2016-11-20T05:02:16.905Z,0
2016-11-20T05:03:16.928Z,0
2016-11-20T05:04:16.941Z,0
2016-11-20T05:05:16.947Z,0
2016-11-20T05:06:16.966Z,0
2016-11-20T05:07:16.978Z,0
2016-11-20T05:08:16.987Z,0
2016-11-20T05:09:17.000Z,0
2016-11-20T05:10:17.015Z,0
2016-11-20T05:11:17.036Z,0
2016-11-20T05:12:17.052Z,0
2016-11-20T05:13:17.048Z,0
2016-11-20T05:14:17.062Z,0
2016-11-20T05:15:17.089Z,0
2016-11-20T05:16:17.104Z,0
2016-11-20T05:17:17.116Z,0
2016-11-20T05:18:17.134Z,0
2016-11-20T05:19:17.149Z,0
2016-11-20T05:20:17.158Z,0
2016-11-20T05:21:17.206Z,0
2016-11-20T05:22:17.181Z,0
2016-11-20T05:23:17.200Z,0
2016-11-20T05:24:17.220Z,0
2016-11-20T05:25:17.224Z,0
2016-11-20T05:26:17.248Z,0
2016-11-20T05:27:17.247Z,0
2016-11-20T05:28:17.269Z,0
2016-11-20T05:29:17.283Z,0
2016-11-20T05:30:17.305Z,0
2016-11-20T05:31:17.307Z,0
2016-11-20T05:32:17.337Z,0
2016-11-20T05:33:17.333Z,0
2016-11-20T05:34:17.357Z,0
2016-11-20T05:35:17.363Z,0
2016-11-20T05:36:17.374Z,0
2016-11-20T05:37:17.394Z,0
2016-11-20T05:38:17.405Z,0
2016-11-20T05:39:17.457Z,0
2016-11-20T05:40:17.429Z,0
2016-11-20T05:41:17.548Z,0
2016-11-20T05:42:17.461Z,0
2016-11-20T05:43:17.468Z,0
2016-11-20T05:44:17.495Z,0
2016-11-20T05:45:17.510Z,0
2016-11-20T05:46:17.521Z,0
2016-11-20T05:47:17.540Z,0
2016-11-20T05:48:17.541Z,0
2016-11-20T05:49:17.564Z,0
2016-11-20T05:50:17.569Z,0
2016-11-20T05:51:17.584Z,0
2016-11-20T05:52:17.595Z,0
2016-11-20T05:53:17.614Z,0
2016-11-20T05:54:17.624Z,0
2016-11-20T05:55:17.644Z,0
2016-11-20T05:56:17.654Z,0
2016-11-20T05:57:17.664Z,0
2016-11-20T05:58:17.678Z,0
2016-11-20T05:59:17.701Z,0
2016-11-20T06:00:17.714Z,0
2016-11-20T06:01:17.720Z,0
2016-11-20T06:02:17.739Z,0
2016-11-20T06:03:17.747Z,0
2016-11-20T06:04:17.763Z,0
2016-11-20T06:05:17.782Z,0
2016-11-20T06:06:17.801Z,0
2016-11-20T06:07:17.801Z,0
2016-11-20T06:08:17.821Z,0
2016-11-20T06:09:17.831Z,0
2016-11-20T06:10:17.839Z,0
2016-11-20T06:11:17.863Z,0
2016-11-20T06:12:17.866Z,0
2016-11-20T06:13:17.888Z,0
2016-11-20T06:14:17.897Z,0
2016-11-20T06:15:17.918Z,0
2016-11-20T06:16:17.920Z,0
2016-11-20T06:17:17.944Z,0
2016-11-20T06:18:17.965Z,0
2016-11-20T06:19:17.966Z,0
2016-11-20T06:20:17.995Z,0
2016-11-20T06:21:17.988Z,0
2016-11-20T06:22:18.020Z,0
2016-11-20T06:23:18.016Z,0
2016-11-20T06:24:18.047Z,0
2016-11-20T06:25:18.050Z,0
2016-11-20T06:26:18.067Z,0
2016-11-20T06:27:18.076Z,0
2016-11-20T06:28:18.087Z,0
2016-11-20T06:29:18.109Z,4
2016-11-20T06:30:18.126Z,4
2016-11-20T06:31:18.140Z,4
2016-11-20T06:32:18.157Z,0
2016-11-20T06:33:18.189Z,4
2016-11-20T06:34:18.186Z,4
2016-11-20T06:35:18.189Z,8
2016-11-20T06:36:18.219Z,4
2016-11-20T06:37:18.226Z,8
2016-11-20T06:38:18.236Z,8
2016-11-20T06:39:18.255Z,8
2016-11-20T06:40:18.263Z,12
2016-11-20T06:41:18.269Z,12
2016-11-20T06:42:18.297Z,16
2016-11-20T06:43:18.304Z,20
2016-11-20T06:44:18.316Z,20
2016-11-20T06:45:18.338Z,24
2016-11-20T06:46:18.343Z,28
2016-11-20T06:47:18.355Z,36
2016-11-20T06:48:18.362Z,36
2016-11-20T06:49:18.382Z,48
2016-11-20T06:50:18.403Z,56
2016-11-20T06:51:18.420Z,64
2016-11-20T06:52:18.422Z,76
2016-11-20T06:53:18.452Z,88
2016-11-20T06:54:18.451Z,100
2016-11-20T06:55:18.472Z,112
2016-11-20T06:56:18.484Z,124
2016-11-20T06:57:18.501Z,136
2016-11-20T06:58:18.518Z,148
2016-11-20T06:59:18.520Z,156
2016-11-20T07:00:18.537Z,172
2016-11-20T07:01:18.554Z,184
2016-11-20T07:02:18.566Z,192
2016-11-20T07:03:18.579Z,200
2016-11-20T07:04:18.584Z,208
2016-11-20T07:05:18.619Z,220
2016-11-20T07:06:18.609Z,228
2016-11-20T07:07:18.625Z,236
2016-11-20T07:08:18.642Z,244
2016-11-20T07:09:18.670Z,260
2016-11-20T07:10:18.671Z,284
2016-11-20T07:11:18.696Z,328
2016-11-20T07:12:18.704Z,364
2016-11-20T07:13:18.719Z,388
2016-11-20T07:14:18.735Z,408
2016-11-20T07:15:18.750Z,416
2016-11-20T07:16:18.785Z,436
2016-11-20T07:17:18.763Z,432
2016-11-20T07:18:18.784Z,408
2016-11-20T07:19:18.789Z,356
2016-11-20T07:20:18.819Z,324
2016-11-20T07:21:18.846Z,320
2016-11-20T07:22:18.837Z,316
2016-11-20T07:23:18.861Z,344
2016-11-20T07:24:18.889Z,388
2016-11-20T07:25:18.875Z,372
2016-11-20T07:26:18.888Z,348
2016-11-20T07:27:18.909Z,328
2016-11-20T07:28:18.961Z,324
2016-11-20T07:29:18.960Z,328
2016-11-20T07:30:18.940Z,332
2016-11-20T07:31:18.961Z,340
2016-11-20T07:32:18.968Z,352
2016-11-20T07:33:18.987Z,380
2016-11-20T07:34:19.005Z,404
2016-11-20T07:35:19.030Z,444
2016-11-20T07:36:19.067Z,488
2016-11-20T07:37:19.046Z,528
2016-11-20T07:38:19.056Z,568
2016-11-20T07:39:19.086Z,608
2016-11-20T07:40:19.091Z,648
2016-11-20T07:41:19.099Z,688
2016-11-20T07:42:19.111Z,728
2016-11-20T07:43:19.136Z,756
2016-11-20T07:44:19.146Z,784
2016-11-20T07:45:19.159Z,784
2016-11-20T07:46:19.178Z,756
2016-11-20T07:47:19.193Z,752
2016-11-20T07:48:19.208Z,712
2016-11-20T07:49:19.223Z,700
2016-11-20T07:50:19.258Z,728
2016-11-20T07:51:19.240Z,836
2016-11-20T07:52:19.250Z,1012
2016-11-20T07:53:19.269Z,1240
2016-11-20T07:54:19.279Z,1328
2016-11-20T07:55:19.287Z,1428
2016-11-20T07:56:19.308Z,1592
2016-11-20T07:57:19.321Z,1636
2016-11-20T07:58:19.334Z,1584
2016-11-20T07:59:19.347Z,1576
2016-11-20T08:00:19.367Z,1740
2016-11-20T08:01:19.380Z,1820
2016-11-20T08:02:19.387Z,1632
2016-11-20T08:03:19.414Z,1296
2016-11-20T08:04:19.422Z,1316
2016-11-20T08:05:19.436Z,1072
2016-11-20T08:06:19.454Z,1096
2016-11-20T08:07:19.468Z,1084
2016-11-20T08:08:19.478Z,1060
2016-11-20T08:09:19.517Z,1064
2016-11-20T08:10:19.497Z,1120
2016-11-20T08:11:19.511Z,1140
2016-11-20T08:12:19.521Z,1116
2016-11-20T08:13:19.546Z,1132
2016-11-20T08:14:19.554Z,1188
2016-11-20T08:15:19.569Z,1228
2016-11-20T08:16:19.583Z,1184
2016-11-20T08:17:19.597Z,1044
2016-11-20T08:18:19.612Z,1036
2016-11-20T08:19:19.670Z,1056
2016-11-20T08:20:19.633Z,1064
2016-11-20T08:21:19.650Z,1060
2016-11-20T08:22:19.672Z,1048
2016-11-20T08:23:19.692Z,1040
2016-11-20T08:24:19.696Z,1032
2016-11-20T08:25:19.714Z,1024
2016-11-20T08:26:19.728Z,1000
2016-11-20T08:27:19.769Z,980
2016-11-20T08:28:19.751Z,960
2016-11-20T08:29:19.776Z,940
2016-11-20T08:30:19.780Z,892
2016-11-20T08:31:19.799Z,852
2016-11-20T08:32:19.808Z,820
2016-11-20T08:33:19.824Z,788
2016-11-20T08:34:19.844Z,772
2016-11-20T08:35:19.843Z,776
2016-11-20T08:36:19.869Z,784
2016-11-20T08:37:19.870Z,804
2016-11-20T08:38:19.886Z,836
2016-11-20T08:39:19.915Z,888
2016-11-20T08:40:19.910Z,928
2016-11-20T08:41:19.928Z,964
2016-11-20T08:42:19.934Z,992
2016-11-20T08:43:19.959Z,1024
2016-11-20T08:44:19.974Z,1056
2016-11-20T08:45:19.994Z,1108
2016-11-20T08:46:19.999Z,1144
2016-11-20T08:47:20.018Z,1164
2016-11-20T08:48:20.028Z,1168
2016-11-20T08:49:20.048Z,1168
2016-11-20T08:50:20.057Z,1168
2016-11-20T08:51:20.070Z,1184
2016-11-20T08:52:20.089Z,1208
2016-11-20T08:53:20.103Z,1228
2016-11-20T08:54:20.117Z,1232
2016-11-20T08:55:20.140Z,1260
2016-11-20T08:56:20.140Z,1264
2016-11-20T08:57:20.151Z,1272
2016-11-20T08:58:20.169Z,1288
2016-11-20T08:59:20.214Z,1276
2016-11-20T09:00:20.200Z,1224
2016-11-20T09:01:20.219Z,1116
2016-11-20T09:02:20.217Z,1024
2016-11-20T09:03:20.238Z,976
2016-11-20T09:04:20.252Z,944
2016-11-20T09:05:20.274Z,812
2016-11-20T09:06:20.281Z,768
2016-11-20T09:07:20.300Z,748
2016-11-20T09:08:20.314Z,736
2016-11-20T09:09:20.328Z,720
2016-11-20T09:10:20.339Z,732
2016-11-20T09:11:20.365Z,792
2016-11-20T09:12:20.690Z,860
2016-11-20T09:13:20.381Z,884
2016-11-20T09:14:20.407Z,852
2016-11-20T09:15:20.413Z,784
2016-11-20T09:16:20.424Z,728
2016-11-20T09:17:20.431Z,720
2016-11-20T09:18:20.444Z,724
2016-11-20T09:19:20.565Z,768
2016-11-20T09:20:20.509Z,1708
2016-11-20T09:21:20.496Z,928
2016-11-20T09:22:20.515Z,824
2016-11-20T09:23:20.526Z,808
2016-11-20T09:24:20.542Z,756
2016-11-20T09:25:20.551Z,692
2016-11-20T09:26:20.564Z,632
2016-11-20T09:27:20.577Z,600
2016-11-20T09:28:20.595Z,604
2016-11-20T09:29:20.603Z,572
2016-11-20T09:30:20.620Z,548
2016-11-20T09:31:20.655Z,564
2016-11-20T09:32:20.657Z,608
2016-11-20T09:33:20.663Z,632
2016-11-20T09:34:20.683Z,616
2016-11-20T09:35:20.697Z,580
2016-11-20T09:36:20.707Z,540
2016-11-20T09:37:20.727Z,540
2016-11-20T09:38:20.744Z,564
2016-11-20T09:39:20.746Z,588
2016-11-20T09:40:20.761Z,616
2016-11-20T09:41:20.778Z,668
2016-11-20T09:42:20.787Z,744
2016-11-20T09:43:20.804Z,844
2016-11-20T09:44:20.810Z,952
2016-11-20T09:45:20.924Z,1040
2016-11-20T09:46:20.841Z,1148
2016-11-20T09:47:20.871Z,1352
2016-11-20T09:48:20.886Z,1708
2016-11-20T09:49:20.897Z,1864
2016-11-20T09:50:20.914Z,1824
2016-11-20T09:51:20.921Z,1748
2016-11-20T09:52:20.930Z,1676
2016-11-20T09:53:20.948Z,1660
2016-11-20T09:54:20.964Z,1804
2016-11-20T09:55:20.983Z,1816
2016-11-20T09:56:20.991Z,1824
2016-11-20T09:57:21.015Z,1772
2016-11-20T09:58:21.022Z,1780
2016-11-20T09:59:21.044Z,1796
2016-11-20T10:00:21.055Z,1812
2016-11-20T10:01:21.063Z,1872
2016-11-20T10:02:21.086Z,2040
2016-11-20T10:03:21.095Z,2248
2016-11-20T10:04:21.116Z,2468
2016-11-20T10:05:21.124Z,2660
2016-11-20T10:06:21.147Z,2792
2016-11-20T10:07:21.156Z,2756
2016-11-20T10:08:21.164Z,2648
2016-11-20T10:09:21.185Z,2596
2016-11-20T10:10:21.198Z,2832
2016-11-20T10:11:21.214Z,3328
2016-11-20T10:12:21.308Z,4036
2016-11-20T10:13:21.239Z,4440
2016-11-20T10:14:21.281Z,4356
2016-11-20T10:15:21.267Z,3752
2016-11-20T10:16:21.280Z,3752
2016-11-20T10:17:21.309Z,3608
2016-11-20T10:18:21.312Z,4016
2016-11-20T10:19:21.364Z,2824
2016-11-20T10:20:21.344Z,2848
2016-11-20T10:21:21.371Z,3252
2016-11-20T10:22:21.377Z,2724
2016-11-20T10:23:21.401Z,2904
2016-11-20T10:24:21.405Z,2836
2016-11-20T10:25:21.420Z,3132
2016-11-20T10:26:21.429Z,4060
2016-11-20T10:27:21.452Z,4680
2016-11-20T10:28:21.457Z,3576
2016-11-20T10:29:21.500Z,3516
2016-11-20T10:30:21.501Z,3268
2016-11-20T10:31:21.513Z,2704
2016-11-20T10:32:21.543Z,2212
2016-11-20T10:33:21.535Z,2320
2016-11-20T10:34:21.555Z,1832
2016-11-20T10:35:21.587Z,1720
2016-11-20T10:36:21.592Z,1588
2016-11-20T10:37:36.446Z,1452
2016-11-20T10:38:21.619Z,1400
2016-11-20T10:39:21.660Z,1340
2016-11-20T10:40:21.652Z,1300
2016-11-20T10:41:21.665Z,1268
2016-11-20T10:42:21.680Z,1236
2016-11-20T10:43:21.710Z,1204
2016-11-20T10:44:21.732Z,1196
2016-11-20T10:45:21.731Z,1184
2016-11-20T10:46:21.737Z,1208
2016-11-20T10:47:21.755Z,1196
2016-11-20T10:48:21.770Z,1188
2016-11-20T10:49:21.787Z,1304
2016-11-20T10:50:21.807Z,1144
2016-11-20T10:51:21.824Z,1116
2016-11-20T10:52:21.829Z,1132
2016-11-20T10:53:21.844Z,1164
2016-11-20T10:54:21.866Z,1116
2016-11-20T10:55:21.877Z,1036
2016-11-20T10:56:21.891Z,956
2016-11-20T10:57:21.914Z,888
2016-11-20T10:58:21.930Z,852
2016-11-20T10:59:21.925Z,836
2016-11-20T11:00:22.287Z,836
2016-11-20T11:01:21.967Z,856
2016-11-20T11:02:22.006Z,864
2016-11-20T11:03:21.996Z,888
2016-11-20T11:04:22.007Z,992
2016-11-20T11:05:22.029Z,1124
2016-11-20T11:06:22.043Z,1580
2016-11-20T11:07:22.075Z,1524
2016-11-20T11:08:22.075Z,1508
2016-11-20T11:09:22.090Z,1532
2016-11-20T11:10:22.135Z,1588
2016-11-20T11:11:22.120Z,1608
2016-11-20T11:12:22.135Z,1640
2016-11-20T11:13:22.154Z,1640
2016-11-20T11:14:22.160Z,1588
2016-11-20T11:15:22.179Z,1572
2016-11-20T11:16:22.193Z,1592
2016-11-20T11:17:22.210Z,1716
2016-11-20T11:18:22.229Z,1880
2016-11-20T11:19:22.228Z,2012
2016-11-20T11:20:22.247Z,2148
2016-11-20T11:21:22.273Z,2228
2016-11-20T11:22:22.286Z,2252
2016-11-20T11:23:22.296Z,2256
2016-11-20T11:24:22.314Z,2180
2016-11-20T11:25:22.334Z,2060
2016-11-20T11:26:22.338Z,1924
2016-11-20T11:27:22.365Z,1788
2016-11-20T11:28:22.369Z,1712
2016-11-20T11:29:22.397Z,1716
2016-11-20T11:30:22.403Z,1836
2016-11-20T11:31:22.417Z,2000
2016-11-20T11:32:22.449Z,2148
2016-11-20T11:33:22.455Z,2228
2016-11-20T11:34:22.470Z,2228
2016-11-20T11:35:22.491Z,2192
2016-11-20T11:36:22.501Z,2196
2016-11-20T11:37:22.515Z,2364
2016-11-20T11:38:22.527Z,2432
2016-11-20T11:39:22.545Z,2644
2016-11-20T11:40:22.566Z,3068
2016-11-20T11:41:22.576Z,3496
2016-11-20T11:42:22.594Z,3948
2016-11-20T11:43:22.611Z,4504
2016-11-20T11:44:22.622Z,5880
2016-11-20T11:45:22.642Z,4156
2016-11-20T11:46:22.683Z,4484
2016-11-20T11:47:22.660Z,5904
2016-11-20T11:48:22.685Z,6480
2016-11-20T11:49:22.710Z,6440
2016-11-20T11:50:22.738Z,6372
2016-11-20T11:51:22.742Z,5744
2016-11-20T11:52:22.779Z,6684
2016-11-20T11:53:22.760Z,5072
2016-11-20T11:54:22.784Z,6324
2016-11-20T11:55:22.825Z,6580
2016-11-20T11:56:22.816Z,6612
2016-11-20T11:57:22.827Z,5636
2016-11-20T11:58:22.884Z,4852
2016-11-20T11:59:22.869Z,4920
2016-11-20T12:00:22.887Z,5468
2016-11-20T12:01:22.896Z,5624
2016-11-20T12:02:22.912Z,6176
2016-11-20T12:03:22.930Z,4828
2016-11-20T12:04:22.934Z,4820
2016-11-20T12:05:22.967Z,6812
2016-11-20T12:06:22.975Z,6856
2016-11-20T12:07:22.993Z,5316
2016-11-20T12:08:23.014Z,5676
2016-11-20T12:09:23.032Z,5680
2016-11-20T12:10:23.044Z,5980
2016-11-20T12:11:23.051Z,5992
2016-11-20T12:12:23.067Z,5804
2016-11-20T12:13:23.095Z,5796
2016-11-20T12:14:23.106Z,3972
2016-11-20T12:15:23.131Z,3940
2016-11-20T12:16:23.139Z,4104
2016-11-20T12:17:23.160Z,4696
2016-11-20T12:18:23.161Z,5528
2016-11-20T12:19:23.187Z,5696
2016-11-20T12:20:23.211Z,5728
2016-11-20T12:21:23.252Z,5688
2016-11-20T12:22:23.230Z,5592
2016-11-20T12:23:23.262Z,5576
2016-11-20T12:24:23.275Z,5332
2016-11-20T12:25:23.290Z,5140
2016-11-20T12:26:23.304Z,4920
2016-11-20T12:27:23.322Z,4772
2016-11-20T12:28:23.331Z,4680
2016-11-20T12:29:23.347Z,4764
2016-11-20T12:30:23.373Z,4664
2016-11-20T12:31:23.385Z,4644
2016-11-20T12:32:23.405Z,4476
2016-11-20T12:33:23.427Z,4224
2016-11-20T12:34:23.437Z,4344
2016-11-20T12:35:23.449Z,4412
2016-11-20T12:36:23.463Z,4344
2016-11-20T12:37:23.493Z,4320
2016-11-20T12:38:23.532Z,4072
2016-11-20T12:39:23.520Z,3996
2016-11-20T12:40:23.539Z,3700
2016-11-20T12:41:23.544Z,3872
2016-11-20T12:42:23.560Z,3756
2016-11-20T12:43:23.579Z,3728
2016-11-20T12:44:23.594Z,3640
2016-11-20T12:45:23.626Z,3560
2016-11-20T12:46:23.637Z,3504
2016-11-20T12:47:23.653Z,3476
2016-11-20T12:48:23.658Z,3440
2016-11-20T12:49:23.675Z,3376
2016-11-20T12:50:23.697Z,3352
2016-11-20T12:51:23.719Z,3264
2016-11-20T12:52:23.730Z,3400
2016-11-20T12:53:23.743Z,3292
2016-11-20T12:54:23.772Z,3280
2016-11-20T12:55:23.774Z,3264
2016-11-20T12:56:23.796Z,3436
2016-11-20T12:57:23.803Z,3500
2016-11-20T12:58:23.825Z,3532
2016-11-20T12:59:23.839Z,3532
2016-11-20T13:00:23.885Z,3360
2016-11-20T13:01:23.955Z,3376
2016-11-20T13:02:23.887Z,3352
2016-11-20T13:03:23.912Z,3424
2016-11-20T13:04:23.927Z,3376
2016-11-20T13:05:23.933Z,3512
2016-11-20T13:06:23.949Z,3692
2016-11-20T13:07:23.971Z,3684
2016-11-20T13:08:23.991Z,3808
2016-11-20T13:09:24.007Z,3804
2016-11-20T13:10:24.014Z,3676
2016-11-20T13:11:24.029Z,3556
2016-11-20T13:12:24.047Z,3432
2016-11-20T13:13:24.049Z,3364
2016-11-20T13:14:24.084Z,3236
2016-11-20T13:15:24.089Z,3080
2016-11-20T13:16:24.112Z,3020
2016-11-20T13:17:24.167Z,3032
2016-11-20T13:18:24.131Z,3036
2016-11-20T13:19:24.160Z,3036
2016-11-20T13:20:24.177Z,3084
2016-11-20T13:21:24.203Z,3128
2016-11-20T13:22:24.203Z,3084
2016-11-20T13:23:24.232Z,3056
2016-11-20T13:24:24.235Z,3048
2016-11-20T13:25:24.252Z,3108
2016-11-20T13:26:24.275Z,3100
2016-11-20T13:27:24.279Z,2980
2016-11-20T13:28:24.308Z,2884
2016-11-20T13:29:24.315Z,2872
2016-11-20T13:30:24.348Z,2876
2016-11-20T13:31:24.346Z,2828
2016-11-20T13:32:24.366Z,2928
2016-11-20T13:33:24.383Z,2856
2016-11-20T13:34:24.393Z,2996
2016-11-20T13:35:24.415Z,2872
2016-11-20T13:36:24.423Z,2676
2016-11-20T13:37:24.454Z,2496
2016-11-20T13:38:24.457Z,2472
2016-11-20T13:39:24.485Z,2488
2016-11-20T13:40:24.495Z,2420
2016-11-20T13:41:24.503Z,2396
2016-11-20T13:42:24.531Z,2424
2016-11-20T13:43:24.537Z,2424
2016-11-20T13:44:24.550Z,2572
2016-11-20T13:45:24.577Z,2488
2016-11-20T13:46:24.595Z,2464
2016-11-20T13:47:24.609Z,2560
2016-11-20T13:48:24.614Z,2548
2016-11-20T13:49:24.630Z,2484
2016-11-20T13:50:24.655Z,2500
2016-11-20T13:51:24.674Z,2596
2016-11-20T13:52:24.700Z,2688
2016-11-20T13:53:24.707Z,2560
2016-11-20T13:54:24.710Z,2560
2016-11-20T13:55:24.723Z,2416
2016-11-20T13:56:24.764Z,2424
2016-11-20T13:57:24.764Z,2268
2016-11-20T13:58:24.790Z,2152
2016-11-20T13:59:24.802Z,2248
2016-11-20T14:00:24.831Z,2284
2016-11-20T14:01:24.830Z,2332
2016-11-20T14:02:24.852Z,2348
2016-11-20T14:03:24.856Z,2280
2016-11-20T14:04:24.893Z,2376